createdAt,value
2023-01-25T00:00:39.807Z,6.40
2023-01-25T00:05:42.930Z,6.50
2023-01-25T00:10:52.547Z,6.40
2023-01-25T00:15:55.639Z,6.40
2023-01-25T00:20:58.723Z,6.40
2023-01-25T00:26:03.166Z,6.40
2023-01-25T00:31:08.268Z,6.40
2023-01-25T00:36:41.044Z,6.40
2023-01-25T00:41:45.915Z,6.40
2023-01-25T00:46:49.428Z,6.40
2023-01-25T00:51:53.449Z,6.40
2023-01-25T00:56:57.958Z,6.40
2023-01-25T01:02:01.422Z,6.40
2023-01-25T01:07:04.610Z,6.40
2023-01-25T01:12:09.299Z,6.40
2023-01-25T01:17:12.387Z,6.40
2023-01-25T01:22:15.604Z,6.40
2023-01-25T01:27:20.097Z,6.40
2023-01-25T01:32:23.388Z,6.40
2023-01-25T01:37:26.543Z,6.40
2023-01-25T01:42:31.398Z,6.40
2023-01-25T01:47:45.915Z,6.30
2023-01-25T01:52:49.801Z,6.30
2023-01-25T01:57:58.485Z,6.30
2023-01-25T02:03:02.580Z,6.30
2023-01-25T02:08:08.963Z,6.50
2023-01-25T02:13:13.763Z,6.30
2023-01-25T02:18:18.510Z,6.40
2023-01-25T02:23:30.364Z,6.40
2023-01-25T02:28:40.723Z,6.40
2023-01-25T02:33:44.105Z,6.40
2023-01-25T02:38:51.147Z,6.40
2023-01-25T02:43:55.960Z,6.40
2023-01-25T02:49:00.131Z,6.40
2023-01-25T02:54:05.422Z,6.40
2023-01-25T02:59:10.584Z,6.40
2023-01-25T03:04:13.793Z,6.30
2023-01-25T03:09:16.889Z,6.30
2023-01-25T03:14:21.380Z,6.20
2023-01-25T03:19:24.477Z,6.10
2023-01-25T03:24:27.670Z,6.10
2023-01-25T03:29:33.540Z,6.00
2023-01-25T03:34:36.731Z,6.10
2023-01-25T03:39:39.801Z,6.10
2023-01-25T03:44:44.270Z,6.00
2023-01-25T03:49:47.358Z,6.10
2023-01-25T03:54:50.439Z,6.10
2023-01-25T03:59:54.898Z,6.10
2023-01-25T04:04:57.981Z,6.10
2023-01-25T04:10:01.108Z,6.10
2023-01-25T04:15:06.072Z,6.10
2023-01-25T04:20:10.554Z,6.10
2023-01-25T04:25:13.648Z,6.10
2023-01-25T04:30:18.472Z,6.20
2023-01-25T04:35:22.117Z,6.10
2023-01-25T04:40:25.485Z,6.10
2023-01-25T04:45:30.054Z,6.10
2023-01-25T04:50:33.435Z,6.10
2023-01-25T04:55:36.658Z,6.10
2023-01-25T05:00:41.191Z,6.00
2023-01-25T05:05:47.946Z,6.00
2023-01-25T05:10:51.022Z,6.00
2023-01-25T05:15:57.476Z,5.90
2023-01-25T05:21:00.593Z,5.90
2023-01-25T05:26:20.914Z,5.90
2023-01-25T05:31:25.478Z,5.80
2023-01-25T05:36:28.641Z,5.80
2023-01-25T05:41:32.241Z,5.70
2023-01-25T05:46:36.740Z,5.70
2023-01-25T05:51:40.076Z,5.60
2023-01-25T05:56:44.018Z,5.60
2023-01-25T06:01:48.551Z,5.50
2023-01-25T06:06:51.658Z,5.50
2023-01-25T06:11:54.779Z,5.50
2023-01-25T06:16:59.285Z,5.50
2023-01-25T06:22:02.366Z,5.40
2023-01-25T06:27:05.545Z,5.40
2023-01-25T06:32:10.199Z,5.50
2023-01-25T06:37:13.501Z,5.50
2023-01-25T06:42:16.614Z,5.50
2023-01-25T06:47:21.280Z,5.50
2023-01-25T06:52:24.716Z,5.50
2023-01-25T06:57:29.401Z,5.50
2023-01-25T07:02:34.094Z,5.40
2023-01-25T07:07:37.297Z,5.40
2023-01-25T07:12:40.503Z,5.50
2023-01-25T07:17:45.013Z,5.50
2023-01-25T07:22:48.117Z,5.40
2023-01-25T07:27:51.225Z,5.40
2023-01-25T07:32:55.690Z,5.40
2023-01-25T07:37:58.876Z,5.40
2023-01-25T07:43:02.003Z,5.50
2023-01-25T07:48:09.954Z,5.50
2023-01-25T07:53:13.421Z,5.50
2023-01-25T07:58:17.411Z,5.40
2023-01-25T08:03:22.219Z,5.30
2023-01-25T08:08:25.433Z,5.20
2023-01-25T08:13:28.648Z,5.20
2023-01-25T08:18:35.833Z,5.10
2023-01-25T08:23:39.167Z,5.10
2023-01-25T08:28:42.534Z,5.10
2023-01-25T08:33:47.417Z,5.10
2023-01-25T08:38:55.432Z,5.10
2023-01-25T08:43:59.393Z,5.10
2023-01-25T08:49:04.520Z,5.10
2023-01-25T08:54:08.879Z,5.20
2023-01-25T08:59:13.966Z,5.30
2023-01-25T09:04:18.775Z,5.30
2023-01-25T09:09:22.524Z,5.40
2023-01-25T09:14:25.861Z,5.50
2023-01-25T09:19:30.358Z,5.50
2023-01-25T09:24:36.971Z,5.60
2023-01-25T09:29:43.776Z,5.60
2023-01-25T09:34:50.928Z,5.70
2023-01-25T09:39:54.219Z,5.70
2023-01-25T09:45:09.348Z,5.70
2023-01-25T09:50:34.103Z,5.70
2023-01-25T09:55:38.014Z,5.70
2023-01-25T10:00:48.029Z,5.70
2023-01-25T10:05:55.410Z,5.70
2023-01-25T10:11:05.805Z,5.70
2023-01-25T10:16:24.578Z,5.70
2023-01-25T10:21:35.861Z,5.70
2023-01-25T10:26:43.140Z,5.70
2023-01-25T10:31:50.484Z,5.70
2023-01-25T10:36:56.984Z,5.70
2023-01-25T10:42:04.307Z,5.70
2023-01-25T10:47:16.243Z,5.70
2023-01-25T10:52:23.284Z,5.70
2023-01-25T10:57:26.803Z,5.70
2023-01-25T11:02:41.976Z,5.70
2023-01-25T11:07:47.452Z,5.70
2023-01-25T11:12:50.884Z,5.70
2023-01-25T11:18:07.123Z,5.80
2023-01-25T11:23:23.982Z,5.80
2023-01-25T11:28:27.140Z,5.80
2023-01-25T11:33:32.457Z,5.70
2023-01-25T11:38:38.558Z,5.80
2023-01-25T11:44:01.595Z,5.80
2023-01-25T11:49:15.232Z,5.90
2023-01-25T11:54:46.687Z,5.90
2023-01-25T12:00:05.521Z,6.00
2023-01-25T12:05:26.149Z,6.00
2023-01-25T12:10:40.777Z,6.00
2023-01-25T12:16:04.171Z,6.00
2023-01-25T12:21:22.965Z,6.00
2023-01-25T12:26:44.279Z,6.00
2023-01-25T12:31:53.272Z,6.00
2023-01-25T12:37:01.839Z,6.00
2023-01-25T12:42:13.991Z,6.00
2023-01-25T12:47:23.218Z,6.00
2023-01-25T12:52:31.722Z,6.00
2023-01-25T12:57:42.789Z,6.00
2023-01-25T13:03:09.436Z,6.00
2023-01-25T13:08:31.099Z,5.90
2023-01-25T13:13:36.454Z,5.80
2023-01-25T13:18:42.760Z,5.80
2023-01-25T13:23:47.971Z,5.80
2023-01-25T13:28:54.335Z,5.70
2023-01-25T13:34:00.275Z,5.70
2023-01-25T13:39:04.586Z,5.70
2023-01-25T13:44:29.261Z,5.80
2023-01-25T13:49:37.794Z,5.80
2023-01-25T13:54:44.904Z,5.90
2023-01-25T13:59:52.416Z,6.00
2023-01-25T14:04:59.315Z,6.00
2023-01-25T14:10:05.458Z,6.00
2023-01-25T14:15:23.796Z,6.10
2023-01-25T14:20:27.259Z,6.00
2023-01-25T14:25:30.755Z,6.10
2023-01-25T14:30:36.636Z,6.10
2023-01-25T14:35:53.831Z,6.00
2023-01-25T14:41:02.185Z,6.00
2023-01-25T14:46:25.627Z,6.10
2023-01-25T14:51:31.033Z,6.10
2023-01-25T14:56:41.386Z,6.00
2023-01-25T15:01:45.951Z,5.80
2023-01-25T15:06:50.736Z,5.70
2023-01-25T15:12:00.563Z,5.60
2023-01-25T15:17:05.026Z,5.70
2023-01-25T15:22:10.015Z,5.70
2023-01-25T15:27:13.404Z,5.80
2023-01-25T15:32:21.791Z,5.80
2023-01-25T15:37:25.142Z,5.80
2023-01-25T15:42:28.981Z,5.80
2023-01-25T15:47:34.459Z,5.80
2023-01-25T15:52:37.609Z,5.80
2023-01-25T15:57:41.429Z,5.80
2023-01-25T16:02:45.964Z,5.80
2023-01-25T16:07:49.115Z,5.80
2023-01-25T16:12:52.826Z,5.90
2023-01-25T16:17:57.381Z,5.90
2023-01-25T16:23:01.341Z,5.90
2023-01-25T16:28:04.501Z,5.90
2023-01-25T16:33:09.069Z,5.90
2023-01-25T16:38:12.980Z,5.90
2023-01-25T16:43:16.288Z,5.90
2023-01-25T16:48:21.295Z,6.00
2023-01-25T16:53:24.369Z,5.90
2023-01-25T16:58:27.823Z,5.80
2023-01-25T17:03:32.254Z,5.80
2023-01-25T17:08:35.640Z,5.70
2023-01-25T17:13:38.869Z,5.70
2023-01-25T17:18:43.372Z,5.70
2023-01-25T17:23:46.540Z,5.60
2023-01-25T17:28:50.179Z,5.50
2023-01-25T17:33:55.308Z,5.50
2023-01-25T17:39:02.310Z,5.40
2023-01-25T17:44:05.406Z,5.40
2023-01-25T17:49:13.528Z,5.40
2023-01-25T17:54:16.773Z,5.40
2023-01-25T17:59:19.999Z,5.40
2023-01-25T18:04:25.469Z,5.30
2023-01-25T18:09:30.135Z,5.20
2023-01-25T18:14:33.266Z,5.30
2023-01-25T18:19:38.038Z,5.30
2023-01-25T18:24:42.667Z,5.30
2023-01-25T18:29:48.574Z,5.40
2023-01-25T18:34:53.028Z,5.40
2023-01-25T18:39:57.310Z,5.50
2023-01-25T18:45:00.376Z,5.50
2023-01-25T18:50:05.529Z,5.60
2023-01-25T18:55:09.262Z,5.60
2023-01-25T19:00:14.921Z,5.60
2023-01-25T19:05:20.937Z,5.60
2023-01-25T19:10:24.224Z,5.60
2023-01-25T19:15:27.384Z,5.60
2023-01-25T19:20:31.922Z,5.70
2023-01-25T19:25:35.025Z,5.70
2023-01-25T19:30:38.780Z,5.70
2023-01-25T19:35:43.417Z,5.60
2023-01-25T19:40:46.503Z,5.60
2023-01-25T19:45:50.254Z,5.50
2023-01-25T19:50:54.702Z,5.40
2023-01-25T19:56:02.838Z,5.40
2023-01-25T20:01:07.895Z,5.30
2023-01-25T20:06:15.947Z,5.20
2023-01-25T20:11:21.520Z,5.20
2023-01-25T20:16:25.743Z,5.20
2023-01-25T20:21:31.268Z,5.20
2023-01-25T20:26:37.400Z,5.20
2023-01-25T20:31:42.226Z,5.20
2023-01-25T20:36:47.439Z,5.10
2023-01-25T20:41:53.551Z,5.00
2023-01-25T20:46:56.959Z,5.10
2023-01-25T20:52:01.525Z,5.00
2023-01-25T20:57:04.818Z,5.10
2023-01-25T21:02:10.302Z,5.10
2023-01-25T21:07:15.237Z,5.10
2023-01-25T21:12:18.356Z,5.10
2023-01-25T21:17:21.452Z,5.10
2023-01-25T21:22:28.688Z,5.20
2023-01-25T21:27:32.082Z,5.20
2023-01-25T21:32:35.394Z,5.20
2023-01-25T21:37:40.170Z,5.10
2023-01-25T21:42:43.353Z,5.10
2023-01-25T21:47:46.611Z,5.00
2023-01-25T21:52:51.278Z,5.00
2023-01-25T21:57:54.573Z,5.00
2023-01-25T22:02:57.998Z,5.00
2023-01-25T22:08:02.560Z,4.90
2023-01-25T22:13:05.732Z,4.90
2023-01-25T22:18:09.147Z,4.80
2023-01-25T22:23:13.699Z,4.80
2023-01-25T22:28:20.674Z,4.80
2023-01-25T22:33:24.126Z,4.90
2023-01-25T22:38:28.758Z,4.90
2023-01-25T22:43:32.072Z,4.90
2023-01-25T22:48:35.813Z,5.00
2023-01-25T22:53:40.896Z,5.00
2023-01-25T22:58:45.929Z,5.00
2023-01-25T23:03:49.652Z,5.00
2023-01-25T23:08:55.887Z,5.10
2023-01-25T23:14:13.407Z,5.10
2023-01-25T23:19:16.915Z,5.10
2023-01-25T23:24:21.823Z,5.10
2023-01-25T23:29:25.037Z,5.10
2023-01-25T23:34:28.314Z,5.20
2023-01-25T23:39:32.808Z,5.20
2023-01-25T23:44:35.930Z,5.20
2023-01-25T23:49:39.096Z,5.20
2023-01-25T23:54:43.710Z,5.20
2023-01-25T23:59:46.789Z,5.30
